This is the latest recevied weather packets stored in our database for station/object WW6Q. If no packets are shown the sender has not sent any weather packets the latest 10 day(s).
| Time | Temp. | Humidity | Pressure | Rain* | Wind** | Luminosity | Snow |
|---|---|---|---|---|---|---|---|
| 1788624949 | 24.44° C | 83% | 1014.5 hPa | 0 mm | - | 480 W/m² | - |
| 1788624647 | 25° C | 81% | 1014.5 hPa | 0 mm | - | 288 W/m² | - |
| 1788624345 | 26.11° C | 78% | 1014.4 hPa | 0 mm | - | 217 W/m² | - |
| 1788624046 | 26.67° C | 74% | 1014.5 hPa | 0 mm | - | 236 W/m² | - |
| 1788623745 | 26.67° C | 74% | 1014.3 hPa | 0 mm | - | 751 W/m² | - |
| 1788623444 | 26.67° C | 76% | 1014.3 hPa | 0 mm | - | 476 W/m² | - |
| 1788623139 | 26.11° C | 77% | 1014.3 hPa | 0 mm | - | 676 W/m² | - |
| 1788622835 | 25.56° C | 78% | 1014.3 hPa | 0 mm | - | 616 W/m² | - |
| 1788622531 | 25.56° C | 79% | 1014.3 hPa | 0 mm | - | 641 W/m² | - |
| 1788622231 | 25° C | 79% | 1014.3 hPa | 0 mm | - | 607 W/m² | - |
| 1788621925 | 25° C | 78% | 1014.4 hPa | 0 mm | - | 524 W/m² | - |
| 1788621621 | 25° C | 81% | 1014.5 hPa | 0 mm | - | 369 W/m² | - |
| 1788621316 | 25° C | 81% | 1014.3 hPa | 0 mm | - | 222 W/m² | - |
| 1788621011 | 25° C | 80% | 1014.3 hPa | 0 mm | - | 332 W/m² | - |
| 1788620712 | 24.44° C | 80% | 1014.3 hPa | 0 mm | - | 288 W/m² | - |
| 1788620403 | 24.44° C | 82% | 1014.4 hPa | 0 mm | - | 328 W/m² | - |
| 1788620098 | 24.44° C | 81% | 1014.2 hPa | 0 mm | - | 293 W/m² | - |
| 1788619796 | 23.89° C | 83% | 1014.4 hPa | 0 mm | - | 224 W/m² | - |
| 1788619492 | 24.44° C | 83% | 1014.4 hPa | 0 mm | - | 179 W/m² | - |
| 1788619191 | 25° C | 82% | 1014.3 hPa | 0 mm | - | 177 W/m² | - |
| 1788618890 | 24.44° C | 84% | 1014.2 hPa | 0 mm | - | 262 W/m² | - |
| 1788618585 | 23.89° C | 85% | 1014.1 hPa | 0 mm | - | 282 W/m² | - |
| 1788618284 | 23.89° C | 85% | 1014.2 hPa | 0 mm | - | 160 W/m² | - |
| 1788617979 | 22.78° C | 88% | 1014.2 hPa | 0 mm | - | 152 W/m² | - |
| 1788617674 | 22.78° C | 89% | 1014.2 hPa | 0 mm | - | 139 W/m² | - |
* Rain latest hour (hover to see other rain measurements)
** Current wind speed in m/s (hover to see current wind gust speed)